Terminal Aerodrome Forecast
Issued by NWS

Home | Current Version | Previous Version | Text Only | Print | Product List | Glossary On
Versions: 1 2 3 4 5 6 7 8 9 10 11 12 13 14 15 16 17 18 19 20 21 22 23
000
FTUS43 KAPX 290520
TAFMBL
TAF
KMBL 290520Z 2906/3006 34005KT P6SM -SHSN OVC035
     FM290700 35004KT P6SM BKN040
     FM291600 33006KT P6SM BKN040
     FM300000 35006KT P6SM BKN035
      AMD LTD TO CLD VIS AND WIND=

USA.gov is the U.S. government's official web portal to all federal, state and local government web resources and services.